Time;durP1;ratioP1;P1;durP2;ratioP2;P2;SDS_P1;SDS_P2;PMS_P1;PMS_P2;Temp;Humidity;BMP_temperature;BMP_pressure;BME280_temperature;BME280_humidity;BME280_pressure;Samples;Min_cycle;Max_cycle;Signal;HPM_P1;HPM_P2
2021/05/06 00:00:11;;;;;;;7.70;4.20;;;;;;;7.00;65.38;98837.41;128208;1098;100803;-83
2021/05/06 00:10:37;;;;;;;7.37;3.33;;;;;;;6.86;65.14;98837.98;127982;1099;101349;-83
2021/05/06 00:34:12;;;;;;;5.87;2.43;;;;;;;6.68;63.57;98839.55;128082;1099;101079;-83
2021/05/06 00:36:59;;;;;;;5.70;2.50;;;;;;;6.65;63.31;98843.10;128240;1098;101482;-85
2021/05/06 00:40:00;;;;;;;7.00;2.10;;;;;;;6.64;63.45;98851.78;128214;1098;101164;-83
2021/05/06 00:46:25;;;;;;;3.70;2.10;;;;;;;6.60;63.83;98850.19;127669;1102;101041;-83
2021/05/06 01:02:16;;;;;;;3.80;2.10;;;;;;;6.45;63.80;98874.06;127695;1101;101187;-83
2021/05/06 01:04:53;;;;;;;4.40;2.80;;;;;;;6.41;64.24;98882.86;127640;1101;100920;-83
2021/05/06 01:07:50;;;;;;;3.87;2.80;;;;;;;6.38;64.66;98882.98;127666;1101;101872;-83
2021/05/06 01:13:32;;;;;;;4.97;3.13;;;;;;;6.32;64.66;98886.65;127667;1102;100809;-83
2021/05/06 01:16:19;;;;;;;5.93;3.30;;;;;;;6.31;64.81;98899.66;127688;1101;101102;-83
2021/05/06 01:19:06;;;;;;;7.25;3.38;;;;;;;6.28;64.78;98891.97;127673;1102;100856;-83
2021/05/06 01:21:57;;;;;;;7.28;2.83;;;;;;;6.26;65.00;98893.77;127657;1098;102044;-83
2021/05/06 01:24:50;;;;;;;6.13;3.43;;;;;;;6.23;64.97;98907.67;128017;1099;101991;-83
2021/05/06 01:30:31;;;;;;;6.23;2.83;;;;;;;6.20;64.78;98906.95;128264;1098;101858;-83
2021/05/06 01:34:07;;;;;;;4.33;2.73;;;;;;;6.17;64.71;98904.47;128214;1098;100876;-83
2021/05/06 01:36:29;;;;;;;7.40;2.40;;;;;;;6.16;64.64;98906.22;128074;1098;101424;-83
2021/05/06 01:42:46;;;;;;;5.37;2.37;;;;;;;6.18;64.57;98913.92;128046;1098;100706;-83
2021/05/06 01:58:04;;;;;;;3.33;1.70;;;;;;;6.25;63.64;98900.70;128088;1098;101233;-83
2021/05/06 02:01:07;;;;;;;3.13;1.70;;;;;;;6.27;63.44;98903.23;128081;1098;100720;-83
2021/05/06 02:03:54;;;;;;;4.63;1.80;;;;;;;6.29;63.71;98916.99;128074;1098;100873;-83
2021/05/06 02:06:41;;;;;;;5.88;1.55;;;;;;;6.31;63.59;98908.27;128028;1098;100939;-84
2021/05/06 02:09:45;;;;;;;3.87;1.70;;;;;;;6.30;63.17;98908.33;128032;1098;100764;-84
2021/05/06 02:12:33;;;;;;;3.33;1.50;;;;;;;6.29;63.34;98911.81;128236;1098;101088;-84
2021/05/06 02:18:06;;;;;;;4.38;1.83;;;;;;;6.24;63.18;98913.70;128057;1098;100976;-84
2021/05/06 02:20:54;;;;;;;6.07;1.60;;;;;;;6.19;63.04;98911.28;128022;1098;100880;-84
2021/05/06 02:23:41;;;;;;;;;;;;;;;6.15;63.37;98920.06;128244;1098;100670;-83
2021/05/06 02:26:28;;;;;;;3.83;1.73;;;;;;;6.10;63.46;98929.71;128147;1098;101122;-83
2021/05/06 02:29:15;;;;;;;2.88;1.60;;;;;;;6.08;63.20;98915.14;128236;1098;100967;-83
2021/05/06 02:32:02;;;;;;;3.93;1.45;;;;;;;6.04;63.22;98919.58;128044;1099;100761;-84
2021/05/06 02:34:48;;;;;;;3.73;1.35;;;;;;;6.01;63.38;98938.66;128238;1098;100703;-84
2021/05/06 02:37:35;;;;;;;5.87;2.10;;;;;;;6.00;63.69;98943.89;128018;1098;101045;-84
2021/05/06 02:40:22;;;;;;;4.63;2.50;;;;;;;5.95;63.83;98936.29;128213;1098;100719;-84
2021/05/06 02:43:08;;;;;;;4.97;2.07;;;;;;;5.92;64.24;98944.13;128049;1098;100702;-84
2021/05/06 02:45:55;;;;;;;4.43;2.00;;;;;;;5.87;64.50;98942.58;128015;1098;101345;-84
2021/05/06 02:48:41;;;;;;;4.93;2.50;;;;;;;5.82;64.53;98945.33;128224;1098;101821;-84
2021/05/06 02:51:38;;;;;;;4.90;2.20;;;;;;;5.80;64.58;98943.69;128179;1098;100782;-84
2021/05/06 02:54:24;;;;;;;5.77;2.20;;;;;;;5.76;65.10;98948.13;128082;1098;100888;-83
2021/05/06 02:57:24;;;;;;;3.40;2.27;;;;;;;5.75;64.64;98951.61;128253;1098;100703;-83
2021/05/06 03:03:23;;;;;;;5.80;2.53;;;;;;;5.71;65.15;98965.52;128063;1098;101423;-83
2021/05/06 03:06:18;;;;;;;5.25;2.15;;;;;;;5.70;65.12;98969.00;128170;1098;100650;-83
2021/05/06 03:09:20;;;;;;;4.77;2.20;;;;;;;5.68;64.72;98960.45;128239;1098;100680;-83
2021/05/06 03:12:27;;;;;;;5.97;2.20;;;;;;;5.66;64.63;98967.42;128232;1097;100756;-84
2021/05/06 03:24:32;;;;;;;5.47;1.90;;;;;;;5.66;63.46;98982.94;128253;1098;101040;-83
2021/05/06 03:27:26;;;;;;;9.03;2.50;;;;;;;5.65;63.38;98989.85;128042;1098;101435;-83
2021/05/06 03:42:30;;;;;;;9.13;1.97;;;;;;;5.69;62.80;99011.29;128238;1098;100693;-83
2021/05/06 03:45:33;;;;;;;12.70;2.47;;;;;;;5.69;62.67;99013.88;128226;1098;100788;-84
2021/05/06 04:13:30;;;;;;;8.87;2.27;;;;;;;5.91;62.96;99081.33;128096;1098;100683;-84
2021/05/06 04:16:38;;;;;;;6.00;2.30;;;;;;;5.93;63.12;99079.57;128191;1098;100769;-83
2021/05/06 04:25:36;;;;;;;6.33;2.63;;;;;;;5.98;63.26;99083.70;128213;1098;101164;-84
2021/05/06 04:38:02;;;;;;;4.93;2.60;;;;;;;6.39;62.72;99109.97;127861;1101;101093;-86
2021/05/06 04:41:09;;;;;;;6.43;2.50;;;;;;;6.49;62.51;99098.42;127899;1101;100925;-85
2021/05/06 04:53:40;;;;;;;6.03;2.60;;;;;;;6.92;61.25;99109.88;127869;1101;101212;-85
2021/05/06 05:05:44;;;;;;;8.30;2.13;;;;;;;11.10;54.99;99096.71;127539;1104;100818;-84
2021/05/06 05:08:41;;;;;;;6.13;2.33;;;;;;;12.90;51.58;99087.41;127638;1102;100865;-84
2021/05/06 05:11:39;;;;;;;4.38;2.00;;;;;;;14.44;44.51;99077.70;127927;1101;100899;-84
2021/05/06 05:21:17;;;;;;;5.27;1.90;;;;;;;18.50;40.61;99096.52;127545;1104;101722;-84
2021/05/06 05:24:11;;;;;;;5.17;1.83;;;;;;;19.59;37.32;99092.45;127528;1104;101689;-84
2021/05/06 05:26:58;;;;;;;5.10;1.70;;;;;;;20.44;34.36;99089.23;127569;1104;101276;-85
2021/05/06 05:29:45;;;;;;;3.90;1.65;;;;;;;21.34;37.17;99101.23;127528;1104;101110;-84
2021/05/06 05:32:31;;;;;;;3.87;1.70;;;;;;;22.05;32.34;99079.38;127566;1105;100783;-84
2021/05/06 05:35:43;;;;;;;;;;;;;;;22.39;31.78;99090.99;127571;1104;101607;-84
2021/05/06 05:56:42;;;;;;;6.47;1.90;;;;;;;24.00;26.68;99099.30;127366;1104;100884;-84
2021/05/06 05:59:28;;;;;;;7.23;1.98;;;;;;;24.05;26.61;99095.14;127534;1104;100878;-83
2021/05/06 06:02:15;;;;;;;6.25;2.30;;;;;;;23.69;26.87;99097.20;127236;1104;100864;-83
2021/05/06 06:05:02;;;;;;;4.93;2.03;;;;;;;24.02;24.50;99087.48;127263;1105;102032;-83
2021/05/06 06:07:53;;;;;;;4.00;1.93;;;;;;;24.54;24.94;99091.73;127503;1105;101971;-83
2021/05/06 06:10:39;;;;;;;4.78;1.85;;;;;;;24.93;24.69;99098.05;127582;1104;100777;-83
2021/05/06 06:13:26;;;;;;;5.83;1.80;;;;;;;25.20;24.29;99099.55;127525;1104;100881;-83
2021/05/06 06:16:22;;;;;;;5.65;1.83;;;;;;;24.92;22.03;99095.55;127541;1104;100663;-83
2021/05/06 06:19:09;;;;;;;5.67;1.90;;;;;;;24.60;23.67;99089.27;127668;1101;102624;-83
2021/05/06 06:22:01;;;;;;;;;;;;;;;25.13;23.58;99106.55;128022;1098;101279;-83
2021/05/06 06:24:48;;;;;;;6.67;2.00;;;;;;;25.57;22.51;99103.43;128213;1098;100802;-83
2021/05/06 06:27:35;;;;;;;4.13;2.27;;;;;;;25.25;20.90;99102.52;128010;1098;100705;-83
2021/05/06 06:30:22;;;;;;;5.40;1.85;;;;;;;23.94;22.04;99084.81;128240;1098;100779;-83
2021/05/06 06:33:09;;;;;;;5.95;2.03;;;;;;;23.92;22.35;99104.61;128014;1099;101664;-83
2021/05/06 06:35:56;;;;;;;5.00;2.00;;;;;;;24.28;23.28;99107.86;128211;1098;100632;-83
2021/05/06 06:38:42;;;;;;;4.30;1.95;;;;;;;24.61;22.80;99103.42;128211;1098;100789;-83
2021/05/06 06:41:29;;;;;;;5.08;2.00;;;;;;;24.94;22.89;99121.05;127993;1098;100674;-85
2021/05/06 06:44:18;;;;;;;6.53;2.13;;;;;;;25.42;22.69;99124.66;128047;1098;101103;-84
2021/05/06 06:47:07;;;;;;;5.73;2.00;;;;;;;26.06;21.86;99129.95;128021;1098;101846;-84
2021/05/06 06:49:53;;;;;;;3.87;1.77;;;;;;;25.90;21.90;99121.02;128002;1098;101126;-84
2021/05/06 06:52:40;;;;;;;6.55;2.08;;;;;;;25.54;22.87;99138.48;128021;1098;100740;-84
2021/05/06 06:55:27;;;;;;;4.88;1.80;;;;;;;25.56;22.65;99139.15;128213;1098;101105;-84
2021/05/06 06:58:14;;;;;;;4.30;1.70;;;;;;;25.32;22.00;99144.56;128184;1098;100690;-84
2021/05/06 07:01:01;;;;;;;6.93;2.60;;;;;;;24.52;21.96;99137.22;128003;1098;101474;-84
2021/05/06 07:03:48;;;;;;;;;;;;;;;24.75;22.29;99148.06;128053;1098;101458;-84
2021/05/06 07:06:34;;;;;;;5.20;2.23;;;;;;;24.37;21.94;99142.36;128223;1098;101017;-84
2021/05/06 07:09:20;;;;;;;7.50;1.90;;;;;;;24.71;21.67;99144.06;128009;1099;100938;-84
2021/05/06 07:12:10;;;;;;;5.37;1.80;;;;;;;24.82;21.65;99132.25;128059;1098;100814;-85
2021/05/06 07:14:56;;;;;;;3.75;1.90;;;;;;;24.91;21.27;99131.23;128028;1098;101546;-85
2021/05/06 07:17:43;;;;;;;3.65;1.80;;;;;;;25.07;21.31;99146.42;128201;1098;100660;-85
2021/05/06 07:20:30;;;;;;;4.23;1.80;;;;;;;25.20;20.65;99141.41;128186;1098;101025;-84
2021/05/06 07:23:19;;;;;;;4.65;1.80;;;;;;;25.38;20.96;99146.54;127915;1098;101147;-85
2021/05/06 07:26:10;;;;;;;6.27;1.60;;;;;;;25.58;20.08;99139.80;128072;1099;100818;-85
2021/05/06 07:28:58;;;;;;;5.67;1.87;;;;;;;25.28;19.80;99149.38;127982;1098;101656;-84
2021/05/06 07:31:50;;;;;;;4.47;2.10;;;;;;;25.16;20.85;99175.61;128002;1098;100743;-85
2021/05/06 07:34:40;;;;;;;6.50;2.13;;;;;;;25.35;20.87;99176.25;128233;1098;101797;-85
2021/05/06 07:37:30;;;;;;;4.83;2.00;;;;;;;25.65;20.73;99172.81;128233;1098;100751;-85
2021/05/06 07:40:23;;;;;;;5.67;1.93;;;;;;;25.97;19.72;99197.78;128247;1098;100930;-84
2021/05/06 07:43:14;;;;;;;5.03;2.00;;;;;;;26.17;20.49;99174.97;128214;1098;101870;-84
2021/05/06 07:46:04;;;;;;;3.63;1.80;;;;;;;26.28;20.12;99177.26;128000;1098;100961;-84
2021/05/06 07:48:55;;;;;;;6.30;1.93;;;;;;;25.90;19.82;99176.28;128088;1098;100810;-84
2021/05/06 07:51:45;;;;;;;3.90;1.83;;;;;;;25.47;20.62;99178.37;128062;1098;100822;-84
2021/05/06 07:54:35;;;;;;;4.40;1.90;;;;;;;25.39;19.05;99188.23;128006;1098;100688;-85
2021/05/06 07:57:25;;;;;;;4.60;1.70;;;;;;;25.70;19.52;99183.86;128159;1097;100953;-84
2021/05/06 08:00:15;;;;;;;6.17;2.20;;;;;;;25.75;19.87;99181.50;128195;1098;100988;-84
2021/05/06 08:03:05;;;;;;;4.77;1.90;;;;;;;25.76;19.63;99191.18;128030;1098;100838;-84
2021/05/06 08:05:56;;;;;;;5.70;1.95;;;;;;;25.48;19.64;99192.55;128023;1098;101219;-84
2021/05/06 08:08:44;;;;;;;6.43;1.97;;;;;;;25.28;20.04;99192.91;127991;1098;100757;-84
2021/05/06 08:11:31;;;;;;;9.53;2.43;;;;;;;25.34;19.61;99214.61;128009;1099;101830;-84
2021/05/06 08:14:21;;;;;;;3.03;1.70;;;;;;;25.13;19.53;99181.25;128199;1098;100805;-84
2021/05/06 08:17:07;;;;;;;6.20;1.83;;;;;;;24.55;19.38;99198.20;128049;1098;100767;-84
2021/05/06 08:19:57;;;;;;;3.00;1.60;;;;;;;23.91;20.20;99196.98;127998;1099;101476;-83
2021/05/06 08:22:44;;;;;;;5.10;2.00;;;;;;;23.20;21.73;99218.48;128225;1098;100977;-84
2021/05/06 08:25:31;;;;;;;3.50;1.90;;;;;;;22.97;22.13;99203.97;128154;1098;101101;-83
2021/05/06 08:28:18;;;;;;;4.80;1.95;;;;;;;22.86;22.06;99205.06;127990;1098;101192;-83
2021/05/06 08:31:04;;;;;;;2.90;1.68;;;;;;;23.36;21.51;99207.96;127953;1098;100992;-84
2021/05/06 08:33:56;;;;;;;3.58;1.83;;;;;;;22.53;22.06;99218.00;128025;1098;103838;-84
2021/05/06 08:36:46;;;;;;;7.30;1.97;;;;;;;21.68;21.55;99210.30;128134;1098;100693;-84
2021/05/06 08:39:38;;;;;;;3.68;1.50;;;;;;;21.11;22.11;99218.21;128003;1098;101509;-85
2021/05/06 08:42:31;;;;;;;3.93;1.83;;;;;;;21.37;22.72;99236.23;128028;1098;100907;-85
2021/05/06 08:45:32;;;;;;;;;;;;;;;;;;;;;
2021/05/06 08:48:19;;;;;;;3.30;1.77;;;;;;;21.50;23.00;99215.52;128078;1098;100811;-84
2021/05/06 08:51:09;;;;;;;3.37;1.43;;;;;;;21.76;22.17;99205.12;128214;1098;100612;-84
2021/05/06 08:54:11;;;;;;;4.83;1.90;;;;;;;21.75;22.60;99215.88;128070;1099;101820;-86
2021/05/06 08:57:07;;;;;;;6.10;2.03;;;;;;;21.67;22.26;99208.63;127947;1099;100837;-86
2021/05/06 08:59:55;;;;;;;4.03;1.70;;;;;;;21.55;22.09;99223.06;127998;1098;100752;-85
2021/05/06 09:02:46;;;;;;;3.27;1.63;;;;;;;21.12;21.15;99222.53;128020;1098;100753;-85
2021/05/06 09:05:36;;;;;;;2.63;1.50;;;;;;;21.09;21.64;99236.08;128027;1098;100673;-85
2021/05/06 09:08:40;;;;;;;8.53;1.73;;;;;;;20.97;21.53;99231.05;128072;1098;101646;-84
2021/05/06 09:11:30;;;;;;;8.93;2.20;;;;;;;20.69;21.11;99224.78;127996;1098;100851;-84
2021/05/06 09:14:19;;;;;;;5.87;1.80;;;;;;;20.54;22.55;99237.59;128044;1098;102205;-87
2021/05/06 09:17:33;;;;;;;4.27;1.90;;;;;;;20.51;22.42;99232.57;128132;1098;101027;-86
2021/05/06 09:20:24;;;;;;;5.63;1.70;;;;;;;19.74;23.41;99238.39;128231;1098;100770;-84
2021/05/06 09:23:14;;;;;;;6.63;2.07;;;;;;;19.79;23.40;99238.02;128192;1098;101419;-85
2021/05/06 09:26:10;;;;;;;5.80;1.63;;;;;;;20.13;23.45;99254.46;127999;1098;100744;-84
2021/05/06 09:28:57;;;;;;;5.23;1.70;;;;;;;19.68;22.98;99248.67;128012;1098;100721;-84
2021/05/06 09:31:44;;;;;;;5.43;1.68;;;;;;;19.69;23.59;99245.05;128157;1098;100836;-84
2021/05/06 09:34:36;;;;;;;5.03;2.18;;;;;;;19.53;23.09;99232.27;128087;1098;100832;-84
2021/05/06 09:37:31;;;;;;;3.80;1.70;;;;;;;19.80;24.54;99253.77;128191;1098;102068;-84
2021/05/06 09:40:18;;;;;;;5.67;1.97;;;;;;;20.05;22.77;99254.27;127990;1098;100457;-84
2021/05/06 09:43:21;;;;;;;5.33;1.83;;;;;;;19.99;22.95;99231.83;128004;1098;100690;-84
2021/05/06 09:46:36;;;;;;;3.77;1.57;;;;;;;20.28;22.64;99246.95;128250;1098;100747;-85
2021/05/06 09:49:24;;;;;;;2.93;1.50;;;;;;;20.25;23.02;99257.83;128210;1098;100653;-84
2021/05/06 09:52:11;;;;;;;5.43;1.80;;;;;;;20.17;22.55;99239.98;128096;1098;100841;-84
2021/05/06 09:54:58;;;;;;;6.27;1.87;;;;;;;20.21;23.25;99242.21;128016;1098;100791;-84
2021/05/06 09:57:45;;;;;;;9.00;2.15;;;;;;;20.24;23.00;99262.28;128130;1098;100635;-85
2021/05/06 10:00:36;;;;;;;;;;;;;;;20.24;23.16;99246.39;128037;1098;101110;-85
2021/05/06 10:03:31;;;;;;;4.40;1.70;;;;;;;20.30;23.29;99245.88;128271;1098;100722;-85
2021/05/06 10:06:21;;;;;;;3.80;1.77;;;;;;;20.37;22.44;99246.16;128032;1098;102288;-85
2021/05/06 10:09:11;;;;;;;4.03;1.60;;;;;;;20.51;22.81;99261.70;128208;1098;100993;-84
2021/05/06 10:12:05;;;;;;;3.80;1.75;;;;;;;20.56;22.98;99251.53;128263;1098;100755;-84
2021/05/06 10:14:56;;;;;;;6.27;2.13;;;;;;;20.44;21.48;99236.72;128068;1098;101780;-83
2021/05/06 10:17:43;;;;;;;2.73;1.50;;;;;;;19.99;21.65;99247.72;128226;1098;101031;-85
2021/05/06 10:20:30;;;;;;;6.15;1.95;;;;;;;19.56;21.82;99256.67;128227;1098;101469;-84
2021/05/06 10:23:18;;;;;;;4.43;1.80;;;;;;;19.26;22.52;99232.81;128029;1098;100859;-84
2021/05/06 10:26:05;;;;;;;;;;;;;;;19.03;23.25;99253.23;128077;1098;100744;-84
2021/05/06 10:28:52;;;;;;;4.87;1.73;;;;;;;19.07;23.90;99257.30;128244;1098;100748;-84
2021/05/06 10:31:39;;;;;;;3.90;1.68;;;;;;;19.13;23.59;99251.49;128159;1098;101044;-84
2021/05/06 10:34:28;;;;;;;6.37;1.80;;;;;;;19.25;23.98;99263.70;128126;1098;101471;-84
2021/05/06 10:37:15;;;;;;;4.00;1.70;;;;;;;19.28;23.58;99255.50;127988;1098;100737;-84
2021/05/06 10:40:25;;;;;;;3.43;1.50;;;;;;;19.28;23.42;99250.21;128212;1098;100771;-85
2021/05/06 10:43:20;;;;;;;4.97;1.70;;;;;;;19.11;22.96;99221.71;128018;1098;100765;-84
2021/05/06 10:46:09;;;;;;;7.70;1.87;;;;;;;18.88;23.13;99252.69;128014;1098;100756;-85
2021/05/06 10:49:01;;;;;;;4.53;1.80;;;;;;;18.73;23.55;99261.86;128211;1098;101695;-85
2021/05/06 10:52:11;;;;;;;3.73;1.63;;;;;;;18.54;23.67;99251.92;128035;1098;101122;-85
2021/05/06 10:54:58;;;;;;;5.75;2.30;;;;;;;18.31;24.07;99266.97;128065;1098;100796;-85
2021/05/06 10:57:45;;;;;;;5.40;2.03;;;;;;;18.40;24.72;99260.95;128213;1098;100817;-85
2021/05/06 11:00:32;;;;;;;4.58;1.55;;;;;;;18.46;24.39;99259.60;127991;1098;101208;-85
2021/05/06 11:03:25;;;;;;;4.27;1.37;;;;;;;18.42;22.88;99252.90;128041;1098;101095;-84
2021/05/06 11:06:35;;;;;;;4.40;1.80;;;;;;;17.99;24.22;99256.31;128078;1099;100695;-85
2021/05/06 11:09:35;;;;;;;5.80;1.70;;;;;;;17.69;24.17;99263.96;128304;1098;100913;-84
2021/05/06 11:12:26;;;;;;;4.23;1.73;;;;;;;17.43;24.55;99258.86;128237;1098;101316;-84
2021/05/06 11:15:22;;;;;;;3.70;2.00;;;;;;;17.16;25.08;99263.56;128019;1098;100806;-84
2021/05/06 11:18:11;;;;;;;7.10;2.00;;;;;;;16.65;25.19;99271.68;128020;1098;100639;-84
2021/05/06 11:20:58;;;;;;;4.53;2.00;;;;;;;16.60;25.13;99263.28;128099;1098;100904;-84
2021/05/06 11:23:51;;;;;;;6.07;1.80;;;;;;;16.67;24.86;99274.23;128224;1098;101190;-86
2021/05/06 11:27:23;;;;;;;5.33;1.80;;;;;;;16.76;24.91;99248.09;128043;1098;100756;-86
2021/05/06 11:30:38;;;;;;;4.95;1.80;;;;;;;16.71;24.33;99254.66;128197;1098;100678;-86
2021/05/06 11:33:26;;;;;;;4.90;1.40;;;;;;;16.48;24.68;99258.89;128185;1098;101397;-85
2021/05/06 11:36:20;;;;;;;5.60;1.67;;;;;;;16.51;24.69;99272.67;128216;1098;101163;-86
2021/05/06 11:39:25;;;;;;;3.90;1.77;;;;;;;16.51;24.86;99269.20;128205;1098;100988;-85
2021/05/06 11:42:13;;;;;;;3.23;1.77;;;;;;;16.23;25.14;99276.45;128208;1098;102767;-86
2021/05/06 11:45:20;;;;;;;2.90;1.77;;;;;;;16.01;25.38;99276.28;128285;1098;100772;-85
2021/05/06 11:48:09;;;;;;;3.48;1.50;;;;;;;15.98;26.50;99285.23;128242;1098;101565;-85
2021/05/06 11:50:56;;;;;;;4.20;1.50;;;;;;;16.07;25.54;99275.00;128024;1098;100940;-87
2021/05/06 11:54:01;;;;;;;5.48;1.90;;;;;;;16.28;24.76;99258.53;128057;1098;101060;-86
2021/05/06 11:57:00;;;;;;;3.60;2.00;;;;;;;16.47;25.49;99259.84;128008;1098;100894;-85
2021/05/06 11:59:47;;;;;;;3.20;1.77;;;;;;;16.48;25.45;99272.89;128067;1098;100747;-85
2021/05/06 12:02:33;;;;;;;5.57;2.00;;;;;;;16.36;24.96;99259.80;128025;1098;101995;-86
2021/05/06 12:05:23;;;;;;;;;;;;;;;16.36;24.60;99280.84;128032;1098;101232;-86
2021/05/06 12:08:12;;;;;;;3.73;1.80;;;;;;;16.26;24.56;99254.34;128056;1098;103004;-86
2021/05/06 12:11:04;;;;;;;6.55;2.13;;;;;;;16.23;24.93;99250.14;128036;1099;100877;-85
2021/05/06 12:13:51;;;;;;;4.20;1.90;;;;;;;16.29;24.72;99249.69;128017;1099;100858;-86
2021/05/06 12:16:38;;;;;;;4.30;2.30;;;;;;;16.12;25.15;99257.94;128161;1098;100894;-85
2021/05/06 12:19:27;;;;;;;5.83;2.10;;;;;;;15.94;24.92;99249.55;128080;1098;100782;-85
2021/05/06 12:22:16;;;;;;;3.70;1.80;;;;;;;15.95;24.30;99263.53;128234;1098;101457;-84
2021/05/06 12:25:03;;;;;;;4.47;1.77;;;;;;;15.79;24.87;99255.87;128026;1100;100726;-85
2021/05/06 12:27:56;;;;;;;5.03;1.70;;;;;;;15.61;24.92;99263.23;128020;1098;100770;-86
2021/05/06 12:30:44;;;;;;;4.55;2.28;;;;;;;15.60;24.50;99251.04;128133;1098;101528;-85
2021/05/06 12:33:34;;;;;;;4.48;1.73;;;;;;;15.54;25.70;99240.09;128038;1099;101138;-85
2021/05/06 12:36:21;;;;;;;4.90;2.10;;;;;;;15.41;25.79;99250.58;128006;1099;101185;-85
2021/05/06 12:39:09;;;;;;;5.97;2.20;;;;;;;15.39;26.10;99257.73;128053;1098;101025;-84
2021/05/06 12:42:01;;;;;;;4.67;2.10;;;;;;;15.28;26.31;99260.25;128022;1098;101293;-83
2021/05/06 12:44:49;;;;;;;4.23;2.00;;;;;;;15.39;26.77;99242.80;128044;1098;100870;-82
2021/05/06 12:47:44;;;;;;;4.37;1.77;;;;;;;15.45;26.35;99246.83;128039;1098;100801;-83
2021/05/06 12:50:35;;;;;;;4.93;1.77;;;;;;;15.39;26.51;99236.71;128112;1098;100832;-83
2021/05/06 12:53:24;;;;;;;4.63;1.90;;;;;;;15.24;27.00;99253.50;127999;1100;100777;-84
2021/05/06 12:56:43;;;;;;;4.50;2.10;;;;;;;15.29;27.27;99243.55;128094;1100;101388;-84
2021/05/06 12:59:29;;;;;;;;;;;;;;;15.19;27.63;99237.22;128066;1099;101499;-84
2021/05/06 13:02:18;;;;;;;4.30;2.10;;;;;;;15.01;27.31;99237.50;128196;1098;101200;-84
2021/05/06 13:05:06;;;;;;;3.30;1.97;;;;;;;14.72;27.37;99235.94;128220;1098;101058;-84
2021/05/06 13:07:52;;;;;;;9.55;2.23;;;;;;;14.46;27.89;99241.09;128216;1098;101006;-82
2021/05/06 13:10:45;;;;;;;5.78;2.43;;;;;;;14.31;28.72;99252.52;128221;1098;100785;-82
2021/05/06 13:13:46;;;;;;;5.97;2.60;;;;;;;14.23;29.89;99246.09;128149;1098;100741;-83
2021/05/06 13:16:37;;;;;;;3.70;2.00;;;;;;;14.09;29.72;99268.77;128015;1098;100926;-83
2021/05/06 13:19:34;;;;;;;3.93;2.33;;;;;;;14.00;30.13;99265.86;128074;1098;101223;-82
2021/05/06 13:22:21;;;;;;;5.10;2.30;;;;;;;13.95;30.70;99265.31;128006;1098;101182;-82
2021/05/06 13:25:10;;;;;;;3.83;2.30;;;;;;;13.91;30.69;99269.90;128212;1098;101210;-82
2021/05/06 13:27:56;;;;;;;3.63;1.93;;;;;;;13.94;30.74;99259.22;127971;1098;101060;-82
2021/05/06 13:30:47;;;;;;;3.95;2.00;;;;;;;13.97;30.90;99266.05;128066;1098;100794;-83
2021/05/06 13:33:34;;;;;;;3.60;2.17;;;;;;;14.10;30.97;99264.36;128118;1098;101091;-82
2021/05/06 13:36:23;;;;;;;5.95;2.20;;;;;;;14.14;30.57;99266.69;128233;1098;100731;-82
2021/05/06 13:39:14;;;;;;;6.17;2.00;;;;;;;14.16;30.81;99253.48;128218;1098;100924;-82
2021/05/06 13:42:03;;;;;;;3.73;2.03;;;;;;;14.16;31.00;99263.97;128013;1098;101049;-83
2021/05/06 13:44:53;;;;;;;4.70;1.93;;;;;;;14.21;31.26;99261.93;128006;1098;100831;-84
2021/05/06 13:47:40;;;;;;;4.97;1.60;;;;;;;14.30;30.52;99255.25;128211;1098;100757;-83
2021/05/06 13:50:26;;;;;;;3.73;1.50;;;;;;;14.29;30.17;99251.78;128030;1098;101240;-83
2021/05/06 13:53:13;;;;;;;2.65;1.60;;;;;;;14.26;29.92;99249.36;128237;1098;102139;-83
2021/05/06 13:55:59;;;;;;;4.87;1.50;;;;;;;14.18;28.83;99235.87;128031;1098;102293;-83
2021/05/06 13:58:49;;;;;;;2.20;1.40;;;;;;;14.10;29.00;99243.39;128194;1098;100804;-86
2021/05/06 14:01:35;;;;;;;3.50;1.67;;;;;;;14.09;28.84;99241.70;128228;1098;101417;-83
2021/05/06 14:04:23;;;;;;;3.70;1.23;;;;;;;14.11;28.91;99226.72;128020;1098;101241;-82
2021/05/06 14:07:10;;;;;;;3.10;1.70;;;;;;;14.12;28.70;99252.00;128048;1098;100813;-82
2021/05/06 14:09:56;;;;;;;2.77;1.67;;;;;;;14.13;29.03;99243.19;128242;1098;101572;-82
2021/05/06 14:12:43;;;;;;;4.03;1.93;;;;;;;14.13;29.59;99245.81;128176;1098;100963;-83
2021/05/06 14:15:30;;;;;;;2.30;1.40;;;;;;;14.13;29.94;99241.41;128052;1098;101089;-82
2021/05/06 14:18:16;;;;;;;6.57;1.93;;;;;;;14.17;30.08;99235.03;128171;1097;100789;-82
2021/05/06 14:21:04;;;;;;;3.25;1.70;;;;;;;14.23;30.08;99243.47;128038;1098;100821;-83
2021/05/06 14:23:51;;;;;;;3.97;1.63;;;;;;;14.21;29.71;99235.70;128236;1098;102054;-82
2021/05/06 14:26:39;;;;;;;2.20;1.50;;;;;;;14.09;28.63;99241.70;128027;1098;100923;-82
2021/05/06 14:29:26;;;;;;;3.37;1.53;;;;;;;13.90;29.11;99242.84;128203;1098;100875;-82
2021/05/06 14:32:12;;;;;;;3.50;1.80;;;;;;;13.83;29.49;99245.95;128222;1098;100750;-82
2021/05/06 14:34:59;;;;;;;4.07;1.70;;;;;;;13.78;29.82;99242.75;128265;1098;100309;-82
2021/05/06 14:37:46;;;;;;;5.47;1.70;;;;;;;13.67;30.10;99235.56;128048;1098;101455;-83
2021/05/06 14:40:33;;;;;;;3.57;1.83;;;;;;;13.62;30.24;99237.59;128227;1098;100673;-82
2021/05/06 14:43:19;;;;;;;4.53;1.60;;;;;;;13.56;30.32;99235.36;128044;1098;101241;-82
2021/05/06 14:46:06;;;;;;;2.67;1.47;;;;;;;13.55;30.75;99238.91;128134;1098;100760;-82
2021/05/06 14:48:54;;;;;;;2.83;1.93;;;;;;;13.57;30.81;99237.88;128034;1098;101127;-85
2021/05/06 14:51:43;;;;;;;1.93;1.70;;;;;;;13.56;31.08;99232.73;128238;1098;101843;-83
2021/05/06 14:54:29;;;;;;;4.07;2.33;;;;;;;13.52;30.91;99226.00;128235;1098;101195;-83
2021/05/06 14:57:16;;;;;;;6.33;2.17;;;;;;;13.49;31.15;99220.95;128218;1098;100932;-83
2021/05/06 15:00:06;;;;;;;2.30;1.60;;;;;;;13.41;31.12;99217.94;128015;1099;100759;-84
2021/05/06 15:02:53;;;;;;;3.13;2.00;;;;;;;13.38;31.48;99224.20;128027;1098;101114;-83
2021/05/06 15:05:39;;;;;;;4.47;2.00;;;;;;;13.38;31.83;99228.60;127968;1098;100890;-83
2021/05/06 15:08:25;;;;;;;3.37;1.93;;;;;;;13.41;31.90;99221.40;128178;1098;100854;-83
2021/05/06 15:11:13;;;;;;;5.38;1.85;;;;;;;13.41;31.16;99224.02;128017;1098;100718;-83
2021/05/06 15:13:59;;;;;;;3.37;1.70;;;;;;;13.39;31.22;99219.81;128232;1098;100971;-84
2021/05/06 15:16:45;;;;;;;3.33;1.80;;;;;;;13.36;30.51;99220.00;128000;1098;100880;-83
2021/05/06 15:19:36;;;;;;;3.17;1.90;;;;;;;13.30;31.14;99229.07;127994;1099;100907;-83
2021/05/06 15:22:24;;;;;;;3.18;1.70;;;;;;;13.29;31.05;99207.28;128186;1098;100689;-83
2021/05/06 15:25:12;;;;;;;2.87;1.63;;;;;;;13.32;31.42;99210.65;128028;1098;101119;-83
2021/05/06 15:27:59;;;;;;;3.57;1.90;;;;;;;13.33;31.10;99200.08;128041;1098;100782;-83
2021/05/06 15:30:48;;;;;;;4.57;1.90;;;;;;;13.36;30.80;99199.05;128035;1098;100744;-83
2021/05/06 15:33:35;;;;;;;3.27;1.57;;;;;;;13.36;31.01;99201.66;128186;1098;101547;-84
2021/05/06 15:36:23;;;;;;;;;;;;;;;13.38;31.07;99194.56;128237;1098;100774;-84
2021/05/06 15:39:09;;;;;;;4.97;2.47;;;;;;;13.43;31.42;99197.73;128007;1098;101144;-84
2021/05/06 15:41:56;;;;;;;4.70;2.13;;;;;;;13.48;31.64;99193.08;128237;1098;100803;-83
2021/05/06 15:44:42;;;;;;;3.53;2.07;;;;;;;13.51;31.37;99185.03;128200;1098;100971;-83
2021/05/06 15:47:29;;;;;;;2.13;1.50;;;;;;;13.55;31.59;99192.59;128217;1098;101603;-83
2021/05/06 15:50:16;;;;;;;;;;;;;;;13.52;31.20;99189.33;128237;1098;100962;-83
2021/05/06 15:53:03;;;;;;;5.60;1.80;;;;;;;13.44;31.21;99178.45;128100;1098;100795;-83
2021/05/06 15:55:49;;;;;;;3.25;1.60;;;;;;;13.36;31.16;99170.23;128180;1098;101064;-82
2021/05/06 15:58:37;;;;;;;3.00;1.77;;;;;;;13.28;31.33;99189.89;128222;1098;100933;-83
2021/05/06 16:01:24;;;;;;;3.05;1.70;;;;;;;13.21;31.60;99188.55;128185;1098;102145;-83
2021/05/06 16:04:11;;;;;;;4.83;2.20;;;;;;;13.15;31.81;99193.28;128112;1098;101003;-83
2021/05/06 16:06:58;;;;;;;4.30;1.73;;;;;;;13.10;32.05;99198.77;128083;1098;100754;-83